sensor_id;sensor_type;location;lat;lon;timestamp;temperature;humidity
4376;DHT22;2202;50.866;12.750;2023-11-18T00:00:38;3.10;98.40
4376;DHT22;2202;50.866;12.750;2023-11-18T00:03:06;3.10;98.30
4376;DHT22;2202;50.866;12.750;2023-11-18T00:05:33;3.20;98.40
4376;DHT22;2202;50.866;12.750;2023-11-18T00:08:00;3.20;98.20
4376;DHT22;2202;50.866;12.750;2023-11-18T00:10:26;3.20;98.10
4376;DHT22;2202;50.866;12.750;2023-11-18T00:12:54;3.20;98.00
4376;DHT22;2202;50.866;12.750;2023-11-18T00:15:21;3.20;97.80
4376;DHT22;2202;50.866;12.750;2023-11-18T00:17:48;3.20;97.70
4376;DHT22;2202;50.866;12.750;2023-11-18T00:20:15;3.20;97.80
4376;DHT22;2202;50.866;12.750;2023-11-18T00:22:44;3.20;98.00
4376;DHT22;2202;50.866;12.750;2023-11-18T00:25:11;3.20;97.80
4376;DHT22;2202;50.866;12.750;2023-11-18T00:27:39;3.30;97.70
4376;DHT22;2202;50.866;12.750;2023-11-18T00:30:07;3.30;97.40
4376;DHT22;2202;50.866;12.750;2023-11-18T00:32:36;3.30;97.30
4376;DHT22;2202;50.866;12.750;2023-11-18T00:35:04;3.20;97.00
4376;DHT22;2202;50.866;12.750;2023-11-18T00:37:33;3.20;97.10
4376;DHT22;2202;50.866;12.750;2023-11-18T00:40:00;3.20;97.00
4376;DHT22;2202;50.866;12.750;2023-11-18T00:42:26;3.20;97.00
4376;DHT22;2202;50.866;12.750;2023-11-18T00:44:53;3.30;96.90
4376;DHT22;2202;50.866;12.750;2023-11-18T00:47:20;3.20;96.80
4376;DHT22;2202;50.866;12.750;2023-11-18T00:49:48;3.20;96.90
4376;DHT22;2202;50.866;12.750;2023-11-18T00:52:17;3.30;96.80
4376;DHT22;2202;50.866;12.750;2023-11-18T00:54:46;3.20;96.80
4376;DHT22;2202;50.866;12.750;2023-11-18T00:57:13;3.20;96.60
4376;DHT22;2202;50.866;12.750;2023-11-18T00:59:41;3.20;96.70
4376;DHT22;2202;50.866;12.750;2023-11-18T01:02:09;3.20;96.70
4376;DHT22;2202;50.866;12.750;2023-11-18T01:04:35;3.20;96.70
4376;DHT22;2202;50.866;12.750;2023-11-18T01:07:02;3.20;96.60
4376;DHT22;2202;50.866;12.750;2023-11-18T01:09:29;3.10;96.90
4376;DHT22;2202;50.866;12.750;2023-11-18T01:12:04;3.20;96.90
4376;DHT22;2202;50.866;12.750;2023-11-18T01:14:31;3.10;96.80
4376;DHT22;2202;50.866;12.750;2023-11-18T01:16:58;3.10;96.90
4376;DHT22;2202;50.866;12.750;2023-11-18T01:19:25;3.10;97.00
4376;DHT22;2202;50.866;12.750;2023-11-18T01:21:52;3.10;97.20
4376;DHT22;2202;50.866;12.750;2023-11-18T01:24:19;3.20;97.10
4376;DHT22;2202;50.866;12.750;2023-11-18T01:26:46;3.20;96.90
4376;DHT22;2202;50.866;12.750;2023-11-18T01:29:14;3.30;96.60
4376;DHT22;2202;50.866;12.750;2023-11-18T01:31:41;3.20;96.70
4376;DHT22;2202;50.866;12.750;2023-11-18T01:34:07;3.30;96.60
4376;DHT22;2202;50.866;12.750;2023-11-18T01:36:34;3.30;96.60
4376;DHT22;2202;50.866;12.750;2023-11-18T01:39:01;3.20;96.50
4376;DHT22;2202;50.866;12.750;2023-11-18T01:41:28;3.30;96.60
4376;DHT22;2202;50.866;12.750;2023-11-18T01:43:58;3.30;96.50
4376;DHT22;2202;50.866;12.750;2023-11-18T01:46:26;3.30;96.40
4376;DHT22;2202;50.866;12.750;2023-11-18T01:48:55;3.20;96.50
4376;DHT22;2202;50.866;12.750;2023-11-18T01:51:24;3.20;96.70
4376;DHT22;2202;50.866;12.750;2023-11-18T01:53:51;3.20;96.80
4376;DHT22;2202;50.866;12.750;2023-11-18T01:56:18;3.20;96.80
4376;DHT22;2202;50.866;12.750;2023-11-18T01:58:46;3.20;96.90
4376;DHT22;2202;50.866;12.750;2023-11-18T02:01:14;3.20;96.80
4376;DHT22;2202;50.866;12.750;2023-11-18T02:03:44;3.30;96.80
4376;DHT22;2202;50.866;12.750;2023-11-18T02:06:13;3.30;96.90
4376;DHT22;2202;50.866;12.750;2023-11-18T02:08:42;3.40;96.70
4376;DHT22;2202;50.866;12.750;2023-11-18T02:11:28;3.40;96.50
4376;DHT22;2202;50.866;12.750;2023-11-18T02:13:59;3.20;96.40
4376;DHT22;2202;50.866;12.750;2023-11-18T02:16:28;3.20;96.70
4376;DHT22;2202;50.866;12.750;2023-11-18T02:18:57;3.30;96.70
4376;DHT22;2202;50.866;12.750;2023-11-18T02:21:26;3.20;96.60
4376;DHT22;2202;50.866;12.750;2023-11-18T02:23:53;3.20;96.60
4376;DHT22;2202;50.866;12.750;2023-11-18T02:26:24;3.20;96.70
4376;DHT22;2202;50.866;12.750;2023-11-18T02:28:51;3.30;96.60
4376;DHT22;2202;50.866;12.750;2023-11-18T02:31:28;3.30;96.30
4376;DHT22;2202;50.866;12.750;2023-11-18T02:34:01;3.20;96.60
4376;DHT22;2202;50.866;12.750;2023-11-18T02:36:31;3.20;96.70
4376;DHT22;2202;50.866;12.750;2023-11-18T02:39:04;3.10;96.80
4376;DHT22;2202;50.866;12.750;2023-11-18T02:41:35;3.10;96.90
4376;DHT22;2202;50.866;12.750;2023-11-18T02:44:03;3.10;97.00
4376;DHT22;2202;50.866;12.750;2023-11-18T02:46:34;3.10;97.10
4376;DHT22;2202;50.866;12.750;2023-11-18T02:49:01;3.10;97.30
4376;DHT22;2202;50.866;12.750;2023-11-18T02:51:30;3.10;97.10
4376;DHT22;2202;50.866;12.750;2023-11-18T02:53:59;3.10;97.40
4376;DHT22;2202;50.866;12.750;2023-11-18T02:56:26;3.10;97.30
4376;DHT22;2202;50.866;12.750;2023-11-18T02:58:54;3.20;97.00
4376;DHT22;2202;50.866;12.750;2023-11-18T03:01:21;3.10;97.00
4376;DHT22;2202;50.866;12.750;2023-11-18T03:03:48;3.10;97.10
4376;DHT22;2202;50.866;12.750;2023-11-18T03:06:15;3.10;97.20
4376;DHT22;2202;50.866;12.750;2023-11-18T03:08:42;3.10;97.20
4376;DHT22;2202;50.866;12.750;2023-11-18T03:11:09;3.00;97.30
4376;DHT22;2202;50.866;12.750;2023-11-18T03:13:37;3.00;97.20
4376;DHT22;2202;50.866;12.750;2023-11-18T03:16:08;3.00;97.40
4376;DHT22;2202;50.866;12.750;2023-11-18T03:18:38;3.00;97.40
4376;DHT22;2202;50.866;12.750;2023-11-18T03:21:06;3.10;97.40
4376;DHT22;2202;50.866;12.750;2023-11-18T03:23:37;2.90;97.40
4376;DHT22;2202;50.866;12.750;2023-11-18T03:26:06;3.00;97.50
4376;DHT22;2202;50.866;12.750;2023-11-18T03:28:33;3.00;97.60
4376;DHT22;2202;50.866;12.750;2023-11-18T03:31:02;3.10;97.40
4376;DHT22;2202;50.866;12.750;2023-11-18T03:33:30;3.10;97.40
4376;DHT22;2202;50.866;12.750;2023-11-18T03:35:57;3.10;96.80
4376;DHT22;2202;50.866;12.750;2023-11-18T03:38:24;3.00;97.00
4376;DHT22;2202;50.866;12.750;2023-11-18T03:40:53;2.90;97.20
4376;DHT22;2202;50.866;12.750;2023-11-18T03:43:21;2.90;97.30
4376;DHT22;2202;50.866;12.750;2023-11-18T03:45:48;2.90;97.40
4376;DHT22;2202;50.866;12.750;2023-11-18T03:48:15;2.90;97.50
4376;DHT22;2202;50.866;12.750;2023-11-18T03:50:45;3.00;97.50
4376;DHT22;2202;50.866;12.750;2023-11-18T03:53:12;2.90;97.40
4376;DHT22;2202;50.866;12.750;2023-11-18T03:55:39;2.90;97.70
4376;DHT22;2202;50.866;12.750;2023-11-18T03:58:05;2.90;97.60
4376;DHT22;2202;50.866;12.750;2023-11-18T04:00:34;2.90;97.80
4376;DHT22;2202;50.866;12.750;2023-11-18T04:03:01;2.90;97.70
4376;DHT22;2202;50.866;12.750;2023-11-18T04:05:29;2.90;97.80
4376;DHT22;2202;50.866;12.750;2023-11-18T04:07:57;2.80;97.60
4376;DHT22;2202;50.866;12.750;2023-11-18T04:10:24;2.80;97.70
4376;DHT22;2202;50.866;12.750;2023-11-18T04:12:51;2.70;97.90
4376;DHT22;2202;50.866;12.750;2023-11-18T04:15:17;2.80;98.20
4376;DHT22;2202;50.866;12.750;2023-11-18T04:17:44;2.80;98.20
4376;DHT22;2202;50.866;12.750;2023-11-18T04:20:11;2.80;97.90
4376;DHT22;2202;50.866;12.750;2023-11-18T04:22:39;2.80;97.90
4376;DHT22;2202;50.866;12.750;2023-11-18T04:25:09;2.80;97.90
4376;DHT22;2202;50.866;12.750;2023-11-18T04:27:36;2.80;97.90
4376;DHT22;2202;50.866;12.750;2023-11-18T04:30:04;2.80;97.70
4376;DHT22;2202;50.866;12.750;2023-11-18T04:32:31;2.80;97.80
4376;DHT22;2202;50.866;12.750;2023-11-18T04:34:59;2.80;97.90
4376;DHT22;2202;50.866;12.750;2023-11-18T04:40:02;2.90;97.70
4376;DHT22;2202;50.866;12.750;2023-11-18T04:42:30;2.90;97.60
4376;DHT22;2202;50.866;12.750;2023-11-18T04:44:57;2.90;97.80
4376;DHT22;2202;50.866;12.750;2023-11-18T04:47:24;2.90;97.60
4376;DHT22;2202;50.866;12.750;2023-11-18T04:49:52;2.80;97.80
4376;DHT22;2202;50.866;12.750;2023-11-18T04:52:19;2.80;97.80
4376;DHT22;2202;50.866;12.750;2023-11-18T04:54:46;2.90;97.80
4376;DHT22;2202;50.866;12.750;2023-11-18T04:57:13;2.80;97.50
4376;DHT22;2202;50.866;12.750;2023-11-18T04:59:42;2.80;97.50
4376;DHT22;2202;50.866;12.750;2023-11-18T05:02:09;2.70;97.70
4376;DHT22;2202;50.866;12.750;2023-11-18T05:04:36;2.80;97.80
4376;DHT22;2202;50.866;12.750;2023-11-18T05:07:03;2.80;97.70
4376;DHT22;2202;50.866;12.750;2023-11-18T05:09:32;2.80;97.70
4376;DHT22;2202;50.866;12.750;2023-11-18T05:12:00;2.70;97.80
4376;DHT22;2202;50.866;12.750;2023-11-18T05:14:26;2.80;97.90
4376;DHT22;2202;50.866;12.750;2023-11-18T05:16:55;2.80;97.70
4376;DHT22;2202;50.866;12.750;2023-11-18T05:19:22;2.80;97.90
4376;DHT22;2202;50.866;12.750;2023-11-18T05:21:50;2.80;97.90
4376;DHT22;2202;50.866;12.750;2023-11-18T05:24:17;2.90;97.70
4376;DHT22;2202;50.866;12.750;2023-11-18T05:26:43;2.80;97.70
4376;DHT22;2202;50.866;12.750;2023-11-18T05:29:10;2.80;97.70
4376;DHT22;2202;50.866;12.750;2023-11-18T05:31:41;2.80;97.80
4376;DHT22;2202;50.866;12.750;2023-11-18T05:34:10;2.90;97.80
4376;DHT22;2202;50.866;12.750;2023-11-18T05:36:38;2.90;97.70
4376;DHT22;2202;50.866;12.750;2023-11-18T05:39:06;2.90;97.40
4376;DHT22;2202;50.866;12.750;2023-11-18T05:41:34;2.80;97.50
4376;DHT22;2202;50.866;12.750;2023-11-18T05:44:05;2.80;97.60
4376;DHT22;2202;50.866;12.750;2023-11-18T05:46:34;2.80;97.70
4376;DHT22;2202;50.866;12.750;2023-11-18T05:49:02;2.80;97.70
4376;DHT22;2202;50.866;12.750;2023-11-18T05:51:34;2.80;97.70
4376;DHT22;2202;50.866;12.750;2023-11-18T05:54:01;2.80;97.50
4376;DHT22;2202;50.866;12.750;2023-11-18T05:56:27;2.70;97.80
4376;DHT22;2202;50.866;12.750;2023-11-18T05:58:54;2.70;97.90
4376;DHT22;2202;50.866;12.750;2023-11-18T06:01:22;2.80;97.90
4376;DHT22;2202;50.866;12.750;2023-11-18T06:03:49;2.80;97.80
4376;DHT22;2202;50.866;12.750;2023-11-18T06:06:16;2.70;97.80
4376;DHT22;2202;50.866;12.750;2023-11-18T06:08:45;2.80;98.00
4376;DHT22;2202;50.866;12.750;2023-11-18T06:11:13;2.80;97.90
4376;DHT22;2202;50.866;12.750;2023-11-18T06:13:41;2.90;97.70
4376;DHT22;2202;50.866;12.750;2023-11-18T06:16:12;2.90;97.80
4376;DHT22;2202;50.866;12.750;2023-11-18T06:18:41;2.80;97.60
4376;DHT22;2202;50.866;12.750;2023-11-18T06:21:11;2.80;97.60
4376;DHT22;2202;50.866;12.750;2023-11-18T06:23:38;2.80;97.60
4376;DHT22;2202;50.866;12.750;2023-11-18T06:26:07;2.80;97.80
4376;DHT22;2202;50.866;12.750;2023-11-18T06:28:35;2.80;97.60
4376;DHT22;2202;50.866;12.750;2023-11-18T06:31:03;2.80;97.60
4376;DHT22;2202;50.866;12.750;2023-11-18T06:33:30;2.80;97.40
4376;DHT22;2202;50.866;12.750;2023-11-18T06:35:57;2.80;97.60
4376;DHT22;2202;50.866;12.750;2023-11-18T06:38:26;2.90;97.40
4376;DHT22;2202;50.866;12.750;2023-11-18T06:40:55;2.80;97.40
4376;DHT22;2202;50.866;12.750;2023-11-18T06:43:26;2.80;97.30
4376;DHT22;2202;50.866;12.750;2023-11-18T06:46:01;2.80;97.20
4376;DHT22;2202;50.866;12.750;2023-11-18T06:48:28;2.80;97.20
4376;DHT22;2202;50.866;12.750;2023-11-18T06:50:55;2.80;97.30
4376;DHT22;2202;50.866;12.750;2023-11-18T06:53:21;2.80;97.20
4376;DHT22;2202;50.866;12.750;2023-11-18T06:55:48;2.80;97.30
4376;DHT22;2202;50.866;12.750;2023-11-18T06:58:15;2.80;97.30
4376;DHT22;2202;50.866;12.750;2023-11-18T07:00:43;2.70;97.30
4376;DHT22;2202;50.866;12.750;2023-11-18T07:03:11;2.70;97.60
4376;DHT22;2202;50.866;12.750;2023-11-18T07:05:38;2.70;97.60
4376;DHT22;2202;50.866;12.750;2023-11-18T07:08:06;2.70;97.60
4376;DHT22;2202;50.866;12.750;2023-11-18T07:10:34;2.80;97.60
4376;DHT22;2202;50.866;12.750;2023-11-18T07:13:03;2.70;97.40
4376;DHT22;2202;50.866;12.750;2023-11-18T07:15:31;2.80;97.50
4376;DHT22;2202;50.866;12.750;2023-11-18T07:18:00;2.80;97.60
4376;DHT22;2202;50.866;12.750;2023-11-18T07:20:27;2.90;97.30
4376;DHT22;2202;50.866;12.750;2023-11-18T07:22:53;2.90;97.10
4376;DHT22;2202;50.866;12.750;2023-11-18T07:25:20;2.90;97.00
4376;DHT22;2202;50.866;12.750;2023-11-18T07:27:48;2.80;97.00
4376;DHT22;2202;50.866;12.750;2023-11-18T07:30:15;2.70;97.20
4376;DHT22;2202;50.866;12.750;2023-11-18T07:32:42;2.80;97.30
4376;DHT22;2202;50.866;12.750;2023-11-18T07:35:10;2.80;97.20
4376;DHT22;2202;50.866;12.750;2023-11-18T07:37:37;2.90;97.20
4376;DHT22;2202;50.866;12.750;2023-11-18T07:40:05;2.80;96.90
4376;DHT22;2202;50.866;12.750;2023-11-18T07:42:32;2.80;97.00
4376;DHT22;2202;50.866;12.750;2023-11-18T07:45:00;2.80;97.00
4376;DHT22;2202;50.866;12.750;2023-11-18T07:47:29;2.80;97.20
4376;DHT22;2202;50.866;12.750;2023-11-18T07:49:57;2.90;97.30
4376;DHT22;2202;50.866;12.750;2023-11-18T07:52:26;3.00;97.10
4376;DHT22;2202;50.866;12.750;2023-11-18T07:54:54;3.10;97.20
4376;DHT22;2202;50.866;12.750;2023-11-18T07:57:22;3.10;96.80
4376;DHT22;2202;50.866;12.750;2023-11-18T07:59:53;3.10;96.90
4376;DHT22;2202;50.866;12.750;2023-11-18T08:02:20;3.20;96.70
4376;DHT22;2202;50.866;12.750;2023-11-18T08:04:47;3.30;96.80
4376;DHT22;2202;50.866;12.750;2023-11-18T08:07:13;3.40;96.60
4376;DHT22;2202;50.866;12.750;2023-11-18T08:09:41;3.30;96.40
4376;DHT22;2202;50.866;12.750;2023-11-18T08:12:08;3.30;96.50
4376;DHT22;2202;50.866;12.750;2023-11-18T08:14:35;3.40;96.30
4376;DHT22;2202;50.866;12.750;2023-11-18T08:17:03;3.40;95.80
4376;DHT22;2202;50.866;12.750;2023-11-18T08:19:31;3.40;96.30
4376;DHT22;2202;50.866;12.750;2023-11-18T08:21:59;3.50;96.40
4376;DHT22;2202;50.866;12.750;2023-11-18T08:24:27;3.50;95.70
4376;DHT22;2202;50.866;12.750;2023-11-18T08:26:56;3.50;96.10
4376;DHT22;2202;50.866;12.750;2023-11-18T08:29:23;3.50;95.70
4376;DHT22;2202;50.866;12.750;2023-11-18T08:31:53;3.50;95.80
4376;DHT22;2202;50.866;12.750;2023-11-18T08:34:20;3.50;95.70
4376;DHT22;2202;50.866;12.750;2023-11-18T08:36:47;3.60;95.50
4376;DHT22;2202;50.866;12.750;2023-11-18T08:39:15;3.50;95.00
4376;DHT22;2202;50.866;12.750;2023-11-18T08:41:42;3.40;95.40
4376;DHT22;2202;50.866;12.750;2023-11-18T08:44:12;3.40;95.70
4376;DHT22;2202;50.866;12.750;2023-11-18T08:46:40;3.50;95.60
4376;DHT22;2202;50.866;12.750;2023-11-18T08:49:20;3.50;95.30
4376;DHT22;2202;50.866;12.750;2023-11-18T08:51:48;3.60;95.50
4376;DHT22;2202;50.866;12.750;2023-11-18T08:54:21;3.60;94.90
4376;DHT22;2202;50.866;12.750;2023-11-18T08:57:02;3.60;95.20
4376;DHT22;2202;50.866;12.750;2023-11-18T08:59:30;3.60;95.30
4376;DHT22;2202;50.866;12.750;2023-11-18T09:01:58;3.70;94.90
4376;DHT22;2202;50.866;12.750;2023-11-18T09:04:25;3.70;94.80
4376;DHT22;2202;50.866;12.750;2023-11-18T09:06:53;3.70;94.80
4376;DHT22;2202;50.866;12.750;2023-11-18T09:09:25;3.80;94.50
4376;DHT22;2202;50.866;12.750;2023-11-18T09:11:53;3.80;94.40
4376;DHT22;2202;50.866;12.750;2023-11-18T09:14:22;3.70;94.60
4376;DHT22;2202;50.866;12.750;2023-11-18T09:16:51;3.70;94.50
4376;DHT22;2202;50.866;12.750;2023-11-18T09:19:20;3.70;94.60
4376;DHT22;2202;50.866;12.750;2023-11-18T09:21:47;3.70;94.80
4376;DHT22;2202;50.866;12.750;2023-11-18T09:24:14;3.90;94.70
4376;DHT22;2202;50.866;12.750;2023-11-18T09:26:45;4.00;94.60
4376;DHT22;2202;50.866;12.750;2023-11-18T09:29:15;4.00;94.30
4376;DHT22;2202;50.866;12.750;2023-11-18T09:31:43;4.10;94.30
4376;DHT22;2202;50.866;12.750;2023-11-18T09:34:15;4.00;93.70
4376;DHT22;2202;50.866;12.750;2023-11-18T09:36:42;4.00;94.10
4376;DHT22;2202;50.866;12.750;2023-11-18T09:39:09;4.00;94.00
4376;DHT22;2202;50.866;12.750;2023-11-18T09:41:41;3.90;94.10
4376;DHT22;2202;50.866;12.750;2023-11-18T09:44:09;3.80;94.60
4376;DHT22;2202;50.866;12.750;2023-11-18T09:46:41;3.70;94.70
4376;DHT22;2202;50.866;12.750;2023-11-18T09:49:16;3.80;95.10
4376;DHT22;2202;50.866;12.750;2023-11-18T09:51:54;3.90;95.00
4376;DHT22;2202;50.866;12.750;2023-11-18T09:54:29;4.00;94.80
4376;DHT22;2202;50.866;12.750;2023-11-18T09:57:02;4.00;94.50
4376;DHT22;2202;50.866;12.750;2023-11-18T09:59:42;4.00;94.40
4376;DHT22;2202;50.866;12.750;2023-11-18T10:02:10;4.00;94.20
4376;DHT22;2202;50.866;12.750;2023-11-18T10:04:39;4.00;94.50
4376;DHT22;2202;50.866;12.750;2023-11-18T10:07:06;4.10;94.50
4376;DHT22;2202;50.866;12.750;2023-11-18T10:09:35;4.20;94.30
4376;DHT22;2202;50.866;12.750;2023-11-18T10:12:05;4.20;94.30
4376;DHT22;2202;50.866;12.750;2023-11-18T10:14:33;4.30;94.40
4376;DHT22;2202;50.866;12.750;2023-11-18T10:17:03;4.40;93.90
4376;DHT22;2202;50.866;12.750;2023-11-18T10:19:51;4.50;93.80
4376;DHT22;2202;50.866;12.750;2023-11-18T10:22:25;4.50;93.60
4376;DHT22;2202;50.866;12.750;2023-11-18T10:24:53;4.60;93.30
4376;DHT22;2202;50.866;12.750;2023-11-18T10:27:22;4.50;92.60
4376;DHT22;2202;50.866;12.750;2023-11-18T10:29:51;4.60;93.10
4376;DHT22;2202;50.866;12.750;2023-11-18T10:32:21;4.40;92.40
4376;DHT22;2202;50.866;12.750;2023-11-18T10:34:54;4.50;92.90
4376;DHT22;2202;50.866;12.750;2023-11-18T10:37:22;4.50;93.20
4376;DHT22;2202;50.866;12.750;2023-11-18T10:39:49;4.50;92.50
4376;DHT22;2202;50.866;12.750;2023-11-18T10:42:17;4.30;91.80
4376;DHT22;2202;50.866;12.750;2023-11-18T10:44:57;4.30;92.50
4376;DHT22;2202;50.866;12.750;2023-11-18T10:47:25;4.40;92.30
4376;DHT22;2202;50.866;12.750;2023-11-18T10:49:54;4.50;92.30
4376;DHT22;2202;50.866;12.750;2023-11-18T10:52:22;4.70;92.40
4376;DHT22;2202;50.866;12.750;2023-11-18T10:54:51;4.60;91.10
4376;DHT22;2202;50.866;12.750;2023-11-18T10:57:20;4.50;91.40
4376;DHT22;2202;50.866;12.750;2023-11-18T10:59:59;4.50;91.90
4376;DHT22;2202;50.866;12.750;2023-11-18T11:02:30;4.60;92.60
4376;DHT22;2202;50.866;12.750;2023-11-18T11:05:01;4.70;91.90
4376;DHT22;2202;50.866;12.750;2023-11-18T11:07:30;4.70;91.70
4376;DHT22;2202;50.866;12.750;2023-11-18T11:09:59;4.80;92.10
4376;DHT22;2202;50.866;12.750;2023-11-18T11:12:33;5.00;92.20
4376;DHT22;2202;50.866;12.750;2023-11-18T11:15:06;5.40;91.40
4376;DHT22;2202;50.866;12.750;2023-11-18T11:17:40;5.60;90.20
4376;DHT22;2202;50.866;12.750;2023-11-18T11:20:14;5.70;90.10
4376;DHT22;2202;50.866;12.750;2023-11-18T11:22:59;5.90;90.30
4376;DHT22;2202;50.866;12.750;2023-11-18T11:25:41;6.00;86.80
4376;DHT22;2202;50.866;12.750;2023-11-18T11:28:11;6.00;86.80
4376;DHT22;2202;50.866;12.750;2023-11-18T11:30:45;6.10;89.00
4376;DHT22;2202;50.866;12.750;2023-11-18T11:33:18;6.50;88.20
4376;DHT22;2202;50.866;12.750;2023-11-18T11:35:55;6.70;84.20
4376;DHT22;2202;50.866;12.750;2023-11-18T11:38:24;6.40;85.20
4376;DHT22;2202;50.866;12.750;2023-11-18T11:40:52;6.50;83.80
4376;DHT22;2202;50.866;12.750;2023-11-18T11:43:21;6.40;84.20
4376;DHT22;2202;50.866;12.750;2023-11-18T11:45:49;6.40;84.20
4376;DHT22;2202;50.866;12.750;2023-11-18T11:48:18;6.10;85.40
4376;DHT22;2202;50.866;12.750;2023-11-18T11:51:09;6.00;85.40
4376;DHT22;2202;50.866;12.750;2023-11-18T11:53:44;6.10;83.60
4376;DHT22;2202;50.866;12.750;2023-11-18T11:56:12;6.20;85.80
4376;DHT22;2202;50.866;12.750;2023-11-18T11:58:47;6.50;83.60
4376;DHT22;2202;50.866;12.750;2023-11-18T12:01:28;6.70;82.00
4376;DHT22;2202;50.866;12.750;2023-11-18T12:04:02;6.80;82.20
4376;DHT22;2202;50.866;12.750;2023-11-18T12:06:34;6.90;80.20
4376;DHT22;2202;50.866;12.750;2023-11-18T12:09:08;6.70;80.60
4376;DHT22;2202;50.866;12.750;2023-11-18T12:11:36;6.80;79.80
4376;DHT22;2202;50.866;12.750;2023-11-18T12:14:05;6.50;81.40
4376;DHT22;2202;50.866;12.750;2023-11-18T12:17:02;6.60;81.00
4376;DHT22;2202;50.866;12.750;2023-11-18T12:19:35;6.80;79.40
4376;DHT22;2202;50.866;12.750;2023-11-18T12:22:16;6.40;79.80
4376;DHT22;2202;50.866;12.750;2023-11-18T12:28:14;6.50;79.20
4376;DHT22;2202;50.866;12.750;2023-11-18T12:30:45;6.60;80.60
4376;DHT22;2202;50.866;12.750;2023-11-18T12:34:01;6.40;80.00
4376;DHT22;2202;50.866;12.750;2023-11-18T12:36:56;6.20;81.60
4376;DHT22;2202;50.866;12.750;2023-11-18T12:43:00;5.80;82.60
4376;DHT22;2202;50.866;12.750;2023-11-18T12:48:33;6.00;80.40
4376;DHT22;2202;50.866;12.750;2023-11-18T12:51:02;6.10;80.20
4376;DHT22;2202;50.866;12.750;2023-11-18T12:53:35;6.30;80.40
4376;DHT22;2202;50.866;12.750;2023-11-18T12:56:04;6.30;79.00
4376;DHT22;2202;50.866;12.750;2023-11-18T12:58:32;6.40;80.20
4376;DHT22;2202;50.866;12.750;2023-11-18T13:00:59;6.30;80.20
4376;DHT22;2202;50.866;12.750;2023-11-18T13:03:28;6.20;80.60
4376;DHT22;2202;50.866;12.750;2023-11-18T13:05:56;6.20;82.40
4376;DHT22;2202;50.866;12.750;2023-11-18T13:08:23;6.10;79.60
4376;DHT22;2202;50.866;12.750;2023-11-18T13:10:52;6.10;80.40
4376;DHT22;2202;50.866;12.750;2023-11-18T13:13:21;6.10;80.00
4376;DHT22;2202;50.866;12.750;2023-11-18T13:15:48;6.20;81.60
4376;DHT22;2202;50.866;12.750;2023-11-18T13:18:16;6.20;81.00
4376;DHT22;2202;50.866;12.750;2023-11-18T13:20:54;6.40;81.80
4376;DHT22;2202;50.866;12.750;2023-11-18T13:23:25;6.40;79.60
4376;DHT22;2202;50.866;12.750;2023-11-18T13:25:54;6.50;79.80
4376;DHT22;2202;50.866;12.750;2023-11-18T13:28:24;6.60;80.60
4376;DHT22;2202;50.866;12.750;2023-11-18T13:30:51;6.60;79.00
4376;DHT22;2202;50.866;12.750;2023-11-18T13:33:18;6.40;79.20
4376;DHT22;2202;50.866;12.750;2023-11-18T13:35:46;6.40;79.20
4376;DHT22;2202;50.866;12.750;2023-11-18T13:38:14;6.50;80.40
4376;DHT22;2202;50.866;12.750;2023-11-18T13:40:44;6.40;78.40
4376;DHT22;2202;50.866;12.750;2023-11-18T13:43:12;6.50;79.20
4376;DHT22;2202;50.866;12.750;2023-11-18T13:45:41;6.50;78.00
4376;DHT22;2202;50.866;12.750;2023-11-18T13:48:09;6.40;78.60
4376;DHT22;2202;50.866;12.750;2023-11-18T13:50:40;6.30;78.60
4376;DHT22;2202;50.866;12.750;2023-11-18T13:53:08;6.30;79.40
4376;DHT22;2202;50.866;12.750;2023-11-18T13:55:36;6.20;79.20
4376;DHT22;2202;50.866;12.750;2023-11-18T13:58:05;6.30;80.20
4376;DHT22;2202;50.866;12.750;2023-11-18T14:00:32;6.30;81.00
4376;DHT22;2202;50.866;12.750;2023-11-18T14:03:01;6.40;81.40
4376;DHT22;2202;50.866;12.750;2023-11-18T14:05:33;6.50;82.00
4376;DHT22;2202;50.866;12.750;2023-11-18T14:08:00;6.50;80.60
4376;DHT22;2202;50.866;12.750;2023-11-18T14:10:34;6.60;81.40
4376;DHT22;2202;50.866;12.750;2023-11-18T14:13:04;6.70;81.40
4376;DHT22;2202;50.866;12.750;2023-11-18T14:15:37;6.70;80.80
4376;DHT22;2202;50.866;12.750;2023-11-18T14:18:07;6.70;81.20
4376;DHT22;2202;50.866;12.750;2023-11-18T14:20:34;6.70;81.00
4376;DHT22;2202;50.866;12.750;2023-11-18T14:23:02;6.70;81.20
4376;DHT22;2202;50.866;12.750;2023-11-18T14:25:29;6.80;81.20
4376;DHT22;2202;50.866;12.750;2023-11-18T14:27:57;6.70;82.00
4376;DHT22;2202;50.866;12.750;2023-11-18T14:30:24;6.80;82.40
4376;DHT22;2202;50.866;12.750;2023-11-18T14:32:51;6.70;82.40
4376;DHT22;2202;50.866;12.750;2023-11-18T14:35:19;6.70;82.80
4376;DHT22;2202;50.866;12.750;2023-11-18T14:37:48;6.70;83.00
4376;DHT22;2202;50.866;12.750;2023-11-18T14:40:15;6.60;83.20
4376;DHT22;2202;50.866;12.750;2023-11-18T14:42:43;6.60;83.20
4376;DHT22;2202;50.866;12.750;2023-11-18T14:45:12;6.50;83.40
4376;DHT22;2202;50.866;12.750;2023-11-18T14:47:39;6.50;83.60
4376;DHT22;2202;50.866;12.750;2023-11-18T14:50:07;6.50;83.80
4376;DHT22;2202;50.866;12.750;2023-11-18T14:52:44;6.40;84.00
4376;DHT22;2202;50.866;12.750;2023-11-18T14:55:12;6.30;84.60
4376;DHT22;2202;50.866;12.750;2023-11-18T14:57:39;6.20;85.00
4376;DHT22;2202;50.866;12.750;2023-11-18T15:00:07;6.10;85.00
4376;DHT22;2202;50.866;12.750;2023-11-18T15:02:36;6.00;84.80
4376;DHT22;2202;50.866;12.750;2023-11-18T15:05:04;5.90;84.80
4376;DHT22;2202;50.866;12.750;2023-11-18T15:07:34;5.80;85.60
4376;DHT22;2202;50.866;12.750;2023-11-18T15:10:03;5.70;86.00
4376;DHT22;2202;50.866;12.750;2023-11-18T15:12:31;5.60;86.20
4376;DHT22;2202;50.866;12.750;2023-11-18T15:14:58;5.50;86.20
4376;DHT22;2202;50.866;12.750;2023-11-18T15:17:25;5.50;86.40
4376;DHT22;2202;50.866;12.750;2023-11-18T15:19:52;5.30;87.20
4376;DHT22;2202;50.866;12.750;2023-11-18T15:22:21;5.30;87.80
4376;DHT22;2202;50.866;12.750;2023-11-18T15:24:48;5.20;88.00
4376;DHT22;2202;50.866;12.750;2023-11-18T15:27:17;5.10;88.40
4376;DHT22;2202;50.866;12.750;2023-11-18T15:29:45;5.00;88.80
4376;DHT22;2202;50.866;12.750;2023-11-18T15:32:16;4.90;89.40
4376;DHT22;2202;50.866;12.750;2023-11-18T15:34:43;4.90;90.00
4376;DHT22;2202;50.866;12.750;2023-11-18T15:37:11;4.80;90.10
4376;DHT22;2202;50.866;12.750;2023-11-18T15:39:38;4.70;90.30
4376;DHT22;2202;50.866;12.750;2023-11-18T15:42:05;4.70;90.50
4376;DHT22;2202;50.866;12.750;2023-11-18T15:44:33;4.70;90.70
4376;DHT22;2202;50.866;12.750;2023-11-18T15:47:00;4.60;90.90
4376;DHT22;2202;50.866;12.750;2023-11-18T15:49:27;4.60;91.00
4376;DHT22;2202;50.866;12.750;2023-11-18T15:51:54;4.50;91.10
4376;DHT22;2202;50.866;12.750;2023-11-18T15:54:20;4.50;91.20
4376;DHT22;2202;50.866;12.750;2023-11-18T15:56:47;4.40;91.30
4376;DHT22;2202;50.866;12.750;2023-11-18T15:59:14;4.40;91.40
4376;DHT22;2202;50.866;12.750;2023-11-18T16:01:42;4.30;91.70
4376;DHT22;2202;50.866;12.750;2023-11-18T16:04:09;4.30;91.70
4376;DHT22;2202;50.866;12.750;2023-11-18T16:06:36;4.30;91.80
4376;DHT22;2202;50.866;12.750;2023-11-18T16:09:03;4.30;92.00
4376;DHT22;2202;50.866;12.750;2023-11-18T16:11:32;4.30;92.00
4376;DHT22;2202;50.866;12.750;2023-11-18T16:13:59;4.30;92.00
4376;DHT22;2202;50.866;12.750;2023-11-18T16:16:25;4.30;92.00
4376;DHT22;2202;50.866;12.750;2023-11-18T16:18:54;4.30;92.10
4376;DHT22;2202;50.866;12.750;2023-11-18T16:21:21;4.20;92.10
4376;DHT22;2202;50.866;12.750;2023-11-18T16:23:48;4.20;92.10
4376;DHT22;2202;50.866;12.750;2023-11-18T16:26:15;4.20;92.10